createdAt,value
2022-09-15T00:02:46.645Z,4153
2022-09-15T00:07:58.847Z,4114
2022-09-15T00:13:11.082Z,4106
2022-09-15T00:18:23.656Z,4123
2022-09-15T00:23:35.869Z,4110
2022-09-15T00:28:48.212Z,4147
2022-09-15T00:34:00.587Z,4140
2022-09-15T00:39:12.800Z,4114
2022-09-15T00:44:25.224Z,4097
2022-09-15T00:49:37.775Z,4132
2022-09-15T00:54:50.263Z,4105
2022-09-15T01:00:02.554Z,4073
2022-09-15T01:05:15.143Z,4105
2022-09-15T01:10:27.759Z,4144
2022-09-15T01:15:40.065Z,4108
2022-09-15T01:20:52.521Z,4025
2022-09-15T01:26:04.782Z,4084
2022-09-15T01:31:17.523Z,4065
2022-09-15T01:36:29.589Z,4125
2022-09-15T01:41:41.882Z,4118
2022-09-15T01:46:54.209Z,4082
2022-09-15T01:52:06.536Z,4065
2022-09-15T01:57:18.848Z,4125
2022-09-15T02:02:31.164Z,4144
2022-09-15T02:07:43.626Z,4097
2022-09-15T02:12:56.017Z,4084
2022-09-15T02:18:08.665Z,4088
2022-09-15T02:23:21.035Z,4131
2022-09-15T02:28:33.438Z,4108
2022-09-15T02:33:45.847Z,4078
2022-09-15T02:38:58.395Z,4097
2022-09-15T02:44:10.716Z,4093
2022-09-15T02:49:23.130Z,4140
2022-09-15T02:54:35.269Z,4086
2022-09-15T02:59:47.751Z,4118
2022-09-15T03:05:00.102Z,4088
2022-09-15T03:10:12.839Z,4114
2022-09-15T03:15:25.144Z,4114
2022-09-15T03:20:37.350Z,4101
2022-09-15T03:25:49.924Z,4060
2022-09-15T03:31:02.449Z,4147
2022-09-15T03:36:14.774Z,4123
2022-09-15T03:41:27.234Z,4129
2022-09-15T03:46:39.607Z,4121
2022-09-15T03:51:51.990Z,4119
2022-09-15T03:57:04.432Z,4108
2022-09-15T04:02:16.645Z,4097
2022-09-15T04:07:29.107Z,4067
2022-09-15T04:12:41.269Z,4092
2022-09-15T04:17:53.436Z,4069
2022-09-15T04:23:05.748Z,4116
2022-09-15T04:28:18.301Z,4090
2022-09-15T04:33:30.608Z,4075
2022-09-15T04:38:43.061Z,4023
2022-09-15T04:43:55.463Z,4073
2022-09-15T04:49:08.020Z,4064
2022-09-15T04:54:20.495Z,4106
2022-09-15T04:59:32.772Z,4121
2022-09-15T05:04:45.070Z,4075
2022-09-15T05:09:57.687Z,4026
2022-09-15T05:15:10.150Z,4129
2022-09-15T05:20:22.648Z,4134
2022-09-15T05:25:35.071Z,4082
2022-09-15T05:30:47.919Z,4134
2022-09-15T05:36:00.530Z,4134
2022-09-15T05:41:13.168Z,4099
2022-09-15T05:46:25.599Z,4080
2022-09-15T05:51:38.010Z,4088
2022-09-15T05:56:50.566Z,4056
2022-09-15T06:02:02.884Z,4105
2022-09-15T06:07:15.394Z,4110
2022-09-15T06:12:28.147Z,4131
2022-09-15T06:17:40.490Z,4090
2022-09-15T06:22:52.889Z,4131
2022-09-15T06:28:05.293Z,4106
2022-09-15T06:33:17.465Z,4114
2022-09-15T06:43:42.261Z,4134
2022-09-15T06:48:54.696Z,4134
2022-09-15T06:54:06.903Z,4110
2022-09-15T06:59:19.363Z,4119
2022-09-15T07:04:31.666Z,4118
2022-09-15T07:09:47.194Z,4097
2022-09-15T07:14:56.466Z,4077
2022-09-15T07:20:08.972Z,4136
2022-09-15T07:25:21.578Z,4080
2022-09-15T07:30:33.731Z,4125
2022-09-15T07:40:58.333Z,4108
2022-09-15T07:46:10.841Z,4110
2022-09-15T07:51:23.282Z,4103
2022-09-15T07:56:35.827Z,4145
2022-09-15T08:01:48.020Z,4116
2022-09-15T08:07:00.173Z,4097
2022-09-15T08:12:12.685Z,4138
2022-09-15T08:17:25.037Z,4140
2022-09-15T08:22:37.583Z,4145
2022-09-15T08:27:49.748Z,4114
2022-09-15T08:33:02.040Z,4145
2022-09-15T08:38:14.595Z,4136
2022-09-15T08:43:26.881Z,4164
2022-09-15T08:48:42.372Z,4136
2022-09-15T08:53:55.026Z,4168
2022-09-15T09:04:19.426Z,4147
2022-09-15T09:09:31.972Z,4149
2022-09-15T09:14:44.262Z,4127
2022-09-15T09:19:56.701Z,4155
2022-09-15T09:25:26.059Z,4142
2022-09-15T09:30:21.521Z,4162
2022-09-15T09:35:33.881Z,4158
2022-09-15T09:40:46.265Z,4145
2022-09-15T09:45:58.546Z,4158
2022-09-15T09:51:11.072Z,4188
2022-09-15T09:56:23.582Z,4153
2022-09-15T10:01:36.351Z,4162
2022-09-15T10:06:48.742Z,4168
2022-09-15T10:12:01.035Z,4144
2022-09-15T10:17:13.315Z,4144
2022-09-15T10:22:25.723Z,4201
2022-09-15T10:27:38.434Z,4194
2022-09-15T10:32:50.883Z,4205
2022-09-15T10:38:03.336Z,4171
2022-09-15T10:43:15.724Z,4207
2022-09-15T10:48:28.017Z,4196
2022-09-15T10:53:40.364Z,4209
2022-09-15T10:58:53.061Z,4209
2022-09-15T11:04:05.234Z,4181
2022-09-15T11:09:17.853Z,4196
2022-09-15T11:14:30.159Z,4207
2022-09-15T11:19:42.570Z,4203
2022-09-15T11:24:55.016Z,4212
2022-09-15T11:35:22.624Z,4211
2022-09-15T11:40:34.899Z,4194
2022-09-15T11:45:47.205Z,4209
2022-09-15T11:50:59.713Z,4199
2022-09-15T11:56:12.000Z,4209
2022-09-15T12:01:24.345Z,4209
2022-09-15T12:06:36.793Z,4211
2022-09-15T12:11:49.202Z,4170
2022-09-15T12:17:01.311Z,4192
2022-09-15T12:22:13.875Z,4190
2022-09-15T12:27:26.015Z,4179
2022-09-15T12:32:38.561Z,4185
2022-09-15T12:37:51.474Z,4188
2022-09-15T12:43:03.941Z,4192
2022-09-15T12:48:16.267Z,4192
2022-09-15T12:53:28.464Z,4196
2022-09-15T13:03:53.523Z,4207
2022-09-15T13:09:06.034Z,4220
2022-09-15T13:14:18.296Z,4214
2022-09-15T13:19:30.649Z,4224
2022-09-15T13:24:43.164Z,4205
2022-09-15T13:29:55.559Z,4211
2022-09-15T13:35:14.804Z,4198
2022-09-15T13:40:20.264Z,4220
2022-09-15T13:45:32.396Z,4222
2022-09-15T13:50:44.742Z,4181
2022-09-15T13:55:57.018Z,4218
2022-09-15T14:01:09.125Z,4205
2022-09-15T14:06:21.431Z,4166
2022-09-15T14:11:40.233Z,4201
2022-09-15T14:16:52.778Z,4216
2022-09-15T14:22:05.333Z,4216
2022-09-15T14:32:30.043Z,4209
2022-09-15T14:37:42.243Z,4198
2022-09-15T14:42:54.662Z,4185
2022-09-15T14:48:07.067Z,4194
2022-09-15T14:53:19.727Z,4214
2022-09-15T14:58:31.996Z,4218
2022-09-15T15:03:44.366Z,4201
2022-09-15T15:08:56.795Z,4196
2022-09-15T15:14:09.267Z,4194
2022-09-15T15:19:21.551Z,4201
2022-09-15T15:24:34.075Z,4198
2022-09-15T15:29:46.538Z,4188
2022-09-15T15:34:58.823Z,4194
2022-09-15T15:45:23.294Z,4179
2022-09-15T15:50:35.874Z,4192
2022-09-15T15:55:47.985Z,4177
2022-09-15T16:01:00.469Z,4175
2022-09-15T16:06:12.766Z,4181
2022-09-15T16:11:25.105Z,4183
2022-09-15T16:16:37.419Z,4188
2022-09-15T16:21:49.840Z,4179
2022-09-15T16:27:03.051Z,4045
2022-09-15T16:32:15.477Z,4179
2022-09-15T16:37:27.915Z,4177
2022-09-15T16:42:40.158Z,4177
2022-09-15T16:47:52.759Z,4194
2022-09-15T16:53:05.065Z,4194
2022-09-15T16:58:17.531Z,4177
2022-09-15T17:03:30.144Z,4151
2022-09-15T17:08:42.710Z,4162
2022-09-15T17:13:54.982Z,4186
2022-09-15T17:19:07.198Z,4196
2022-09-15T17:24:19.858Z,4166
2022-09-15T17:29:32.007Z,4175
2022-09-15T17:34:44.395Z,4157
2022-09-15T17:39:58.879Z,4183
2022-09-15T17:45:08.964Z,4158
2022-09-15T17:50:21.668Z,4173
2022-09-15T17:55:34.321Z,4181
2022-09-15T18:00:46.502Z,4170
2022-09-15T18:05:59.052Z,4183
2022-09-15T18:11:11.363Z,4142
2022-09-15T18:16:23.766Z,4192
2022-09-15T18:21:35.921Z,4181
2022-09-15T18:26:48.164Z,4173
2022-09-15T18:32:00.363Z,4170
2022-09-15T18:37:12.787Z,4190
2022-09-15T18:47:36.999Z,4179
2022-09-15T18:52:49.442Z,4171
2022-09-15T18:58:01.754Z,4171
2022-09-15T19:03:14.236Z,4179
2022-09-15T19:08:26.438Z,4190
2022-09-15T19:13:38.870Z,4177
2022-09-15T19:18:51.121Z,4142
2022-09-15T19:24:03.433Z,4157
2022-09-15T19:29:16.042Z,4188
2022-09-15T19:34:28.522Z,4188
2022-09-15T19:39:40.948Z,4147
2022-09-15T19:44:53.194Z,4132
2022-09-15T19:50:05.512Z,4138
2022-09-15T19:55:17.919Z,4188
2022-09-15T20:00:44.022Z,4147
2022-09-15T20:05:56.422Z,4164
2022-09-15T20:16:21.080Z,4168
2022-09-15T20:21:49.051Z,4155
2022-09-15T20:26:46.007Z,4158
2022-09-15T20:32:00.935Z,4173
2022-09-15T20:37:13.293Z,4158
2022-09-15T20:42:25.606Z,4175
2022-09-15T20:47:38.006Z,4140
2022-09-15T20:58:02.773Z,4157
2022-09-15T21:03:15.160Z,4168
2022-09-15T21:08:27.664Z,4181
2022-09-15T21:13:40.007Z,4185
2022-09-15T21:18:52.445Z,4149
2022-09-15T21:24:07.919Z,4181
2022-09-15T21:29:20.240Z,4183
2022-09-15T21:34:32.545Z,4183
2022-09-15T21:39:45.195Z,4145
2022-09-15T21:44:57.417Z,4181
2022-09-15T21:50:09.743Z,4147
2022-09-15T21:55:22.057Z,4123
2022-09-15T22:00:34.163Z,4179
2022-09-15T22:05:46.601Z,4106
2022-09-15T22:10:58.811Z,4054
2022-09-15T22:16:11.165Z,4162
2022-09-15T22:21:23.405Z,4177
2022-09-15T22:26:35.399Z,4162
2022-09-15T22:31:47.951Z,4164
2022-09-15T22:37:00.280Z,4144
2022-09-15T22:42:12.481Z,4134
2022-09-15T22:47:24.787Z,4162
2022-09-15T22:52:37.139Z,4158
2022-09-15T22:57:49.511Z,4134
2022-09-15T23:03:01.567Z,4175
2022-09-15T23:08:13.993Z,4175
2022-09-15T23:13:26.134Z,4175
2022-09-15T23:18:38.519Z,4173
2022-09-15T23:23:50.755Z,4162
2022-09-15T23:29:03.011Z,4158
2022-09-15T23:34:15.393Z,4171
2022-09-15T23:39:27.837Z,4125
2022-09-15T23:44:40.127Z,4158
2022-09-15T23:49:52.430Z,4171
2022-09-15T23:55:04.804Z,4170
